Time;durP1;ratioP1;P1;durP2;ratioP2;P2;SDS_P1;SDS_P2;PMS_P1;PMS_P2;Temp;Humidity;BMP_temperature;BMP_pressure;BME280_temperature;BME280_humidity;BME280_pressure;Samples;Min_cycle;Max_cycle;Signal;HPM_P1;HPM_P2
2022/03/25 00:00:41;;;;;;;;;;;20.90;99.90;;;;;;5034767;28;19916;-72
2022/03/25 00:03:08;;;;;;;;;;;21.00;99.90;;;;;;5034481;28;20426;-72
2022/03/25 00:05:35;;;;;;;;;;;21.10;99.90;;;;;;5034459;28;19917;-72
2022/03/25 00:08:02;;;;;;;;;;;21.10;99.90;;;;;;5034892;28;19913;-72
2022/03/25 00:10:28;;;;;;;;;;;21.20;99.90;;;;;;5034432;28;19909;-73
2022/03/25 00:12:55;;;;;;;;;;;21.20;99.90;;;;;;5034508;28;19913;-72
2022/03/25 00:15:22;;;;;;;;;;;21.20;99.90;;;;;;5034757;28;19916;-72
2022/03/25 00:17:48;;;;;;;;;;;21.10;99.90;;;;;;5034894;28;19910;-71
2022/03/25 00:20:15;;;;;;;;;;;21.10;99.90;;;;;;5033844;28;19920;-72
2022/03/25 00:22:42;;;;;;;;;;;21.20;99.90;;;;;;5034305;28;19913;-72
2022/03/25 00:25:10;;;;;;;;;;;21.20;99.90;;;;;;5016534;28;20414;-72
2022/03/25 00:27:36;;;;;;;;;;;21.20;99.90;;;;;;5034321;28;19909;-72
2022/03/25 00:30:04;;;;;;;;;;;21.30;99.90;;;;;;5034376;28;19920;-72
2022/03/25 00:32:31;;;;;;;;;;;21.20;99.90;;;;;;5033951;28;19948;-72
2022/03/25 00:34:58;;;;;;;;;;;21.20;99.90;;;;;;5034211;28;19913;-72
2022/03/25 00:37:25;;;;;;;;;;;21.20;99.90;;;;;;5034210;28;19915;-71
2022/03/25 00:39:52;;;;;;;;;;;21.20;99.90;;;;;;5033951;28;19917;-72
2022/03/25 00:42:19;;;;;;;;;;;21.20;99.90;;;;;;5033760;28;20339;-72
2022/03/25 00:44:47;;;;;;;;;;;21.20;99.90;;;;;;5033920;28;19916;-72
2022/03/25 00:47:14;;;;;;;;;;;21.30;99.90;;;;;;5033948;28;20383;-73
2022/03/25 00:49:42;;;;;;;;;;;21.40;99.90;;;;;;5033791;28;19916;-72
2022/03/25 00:52:09;;;;;;;;;;;21.30;99.90;;;;;;5033543;28;20368;-73
2022/03/25 00:54:36;;;;;;;;;;;21.30;99.90;;;;;;5033765;28;20394;-72
2022/03/25 00:57:03;;;;;;;;;;;21.30;99.90;;;;;;5033780;28;20363;-72
2022/03/25 00:59:29;;;;;;;;;;;21.30;99.90;;;;;;5033687;28;19916;-73
2022/03/25 01:01:56;;;;;;;;;;;21.40;99.90;;;;;;5033791;28;20363;-72
2022/03/25 01:04:23;;;;;;;;;;;21.60;99.90;;;;;;5033397;28;19928;-71
2022/03/25 01:06:49;;;;;;;;;;;21.70;99.90;;;;;;5033686;28;19916;-71
2022/03/25 01:09:16;;;;;;;;;;;22.00;99.90;;;;;;5033697;28;19931;-72
2022/03/25 01:11:43;;;;;;;;;;;22.30;99.90;;;;;;5033741;28;19936;-72
2022/03/25 01:14:09;;;;;;;;;;;22.40;99.90;;;;;;5033310;28;19916;-72
2022/03/25 01:16:36;;;;;;;;;;;22.70;99.90;;;;;;5033581;28;19909;-71
2022/03/25 01:19:03;;;;;;;;;;;23.10;99.90;;;;;;5033451;28;20318;-72
2022/03/25 01:21:30;;;;;;;;;;;23.50;99.90;;;;;;5033269;28;20280;-72
2022/03/25 01:23:57;;;;;;;;;;;23.70;99.90;;;;;;5033380;28;19916;-71
2022/03/25 01:26:24;;;;;;;;;;;24.00;99.90;;;;;;5033014;28;19917;-71
2022/03/25 01:28:52;;;;;;;;;;;24.20;99.90;;;;;;5033443;28;19956;-71
2022/03/25 01:31:19;;;;;;;;;;;24.40;99.90;;;;;;5033325;28;19909;-72
2022/03/25 01:33:46;;;;;;;;;;;24.60;99.90;;;;;;5038198;28;19909;-71
2022/03/25 01:36:13;;;;;;;;;;;24.20;99.90;;;;;;5039693;28;20004;-71
2022/03/25 01:38:39;;;;;;;;;;;23.80;99.90;;;;;;5039924;28;19917;-71
2022/03/25 01:41:07;;;;;;;;;;;23.40;99.90;;;;;;5040032;28;19958;-71
2022/03/25 01:43:34;;;;;;;;;;;23.30;99.90;;;;;;5039868;28;19916;-73
2022/03/25 01:46:01;;;;;;;;;;;23.00;99.90;;;;;;5039847;28;19972;-71
2022/03/25 01:48:28;;;;;;;;;;;22.90;99.90;;;;;;5039351;28;20359;-71
2022/03/25 01:50:55;;;;;;;;;;;23.00;99.90;;;;;;5039675;28;20000;-71
2022/03/25 01:53:23;;;;;;;;;;;23.10;99.90;;;;;;5021986;28;19996;-72
2022/03/25 01:55:56;;;;;;;;;;;23.30;99.90;;;;;;5039778;28;19909;-72
2022/03/25 01:58:22;;;;;;;;;;;23.40;99.90;;;;;;5039490;28;19949;-71
2022/03/25 02:00:49;;;;;;;;;;;23.50;99.90;;;;;;5035530;28;19913;-71
2022/03/25 02:03:16;;;;;;;;;;;23.50;99.90;;;;;;5030637;28;19909;-71
2022/03/25 02:05:46;;;;;;;;;;;23.60;99.90;;;;;;5039334;28;20011;-71
2022/03/25 02:08:14;;;;;;;;;;;23.60;99.90;;;;;;5039427;28;19913;-71
2022/03/25 02:10:43;;;;;;;;;;;23.60;99.90;;;;;;5039525;28;19941;-72
2022/03/25 02:13:10;;;;;;;;;;;23.50;99.90;;;;;;5039529;28;19909;-71
2022/03/25 02:15:39;;;;;;;;;;;23.60;99.90;;;;;;5039531;28;19909;-72
2022/03/25 02:18:08;;;;;;;;;;;23.60;99.90;;;;;;5039530;28;19963;-71
2022/03/25 02:20:35;;;;;;;;;;;23.50;99.90;;;;;;5039329;28;19940;-71
2022/03/25 02:23:02;;;;;;;;;;;23.50;99.90;;;;;;5039418;28;19996;-71
2022/03/25 02:25:31;;;;;;;;;;;23.60;99.90;;;;;;5039364;28;20008;-71
2022/03/25 02:27:59;;;;;;;;;;;23.50;99.90;;;;;;5039455;28;20000;-71
2022/03/25 02:30:27;;;;;;;;;;;23.40;99.90;;;;;;5039178;28;19909;-72
2022/03/25 02:32:57;;;;;;;;;;;23.40;99.90;;;;;;5039389;28;20387;-72
2022/03/25 02:35:36;;;;;;;;;;;23.40;99.90;;;;;;5039118;28;20271;-72
2022/03/25 02:38:04;;;;;;;;;;;23.40;99.90;;;;;;5039275;28;19920;-72
2022/03/25 02:40:30;;;;;;;;;;;23.40;99.90;;;;;;5039133;28;19943;-72
2022/03/25 02:42:57;;;;;;;;;;;23.30;99.90;;;;;;5039278;28;19920;-72
2022/03/25 02:45:24;;;;;;;;;;;23.30;99.90;;;;;;5036607;28;19917;-73
2022/03/25 02:47:50;;;;;;;;;;;23.20;99.90;;;;;;5036192;28;20329;-72
2022/03/25 02:50:17;;;;;;;;;;;23.30;99.90;;;;;;5035961;28;20406;-73
2022/03/25 02:52:44;;;;;;;;;;;23.30;99.90;;;;;;5036205;28;19999;-72
2022/03/25 02:55:12;;;;;;;;;;;23.20;99.90;;;;;;5036124;28;19916;-73
2022/03/25 02:57:39;;;;;;;;;;;23.20;99.90;;;;;;5035979;28;19963;-72
2022/03/25 03:00:09;;;;;;;;;;;23.20;99.90;;;;;;5036009;28;20010;-72
2022/03/25 03:02:37;;;;;;;;;;;23.30;99.90;;;;;;5035843;28;19971;-72
2022/03/25 03:05:06;;;;;;;;;;;23.40;99.90;;;;;;5035731;28;19917;-72
2022/03/25 03:07:33;;;;;;;;;;;23.40;99.90;;;;;;5035841;28;19913;-72
2022/03/25 03:10:00;;;;;;;;;;;23.30;99.90;;;;;;5018079;28;19944;-72
2022/03/25 03:12:27;;;;;;;;;;;23.10;99.90;;;;;;5035525;28;19963;-72
2022/03/25 03:14:53;;;;;;;;;;;23.10;99.90;;;;;;5035760;28;20004;-72
2022/03/25 03:17:20;;;;;;;;;;;23.00;99.90;;;;;;5035651;28;19909;-72
2022/03/25 03:19:47;;;;;;;;;;;22.90;99.90;;;;;;5035270;28;19918;-72
2022/03/25 03:22:13;;;;;;;;;;;22.90;99.90;;;;;;5035385;28;20330;-72
2022/03/25 03:24:40;;;;;;;;;;;22.90;99.90;;;;;;5035463;28;19949;-72
2022/03/25 03:27:07;;;;;;;;;;;22.80;99.90;;;;;;5035389;28;19967;-72
2022/03/25 03:29:34;;;;;;;;;;;22.90;99.90;;;;;;5035407;28;19959;-71
2022/03/25 03:32:00;;;;;;;;;;;22.90;99.90;;;;;;5035397;28;20417;-72
2022/03/25 03:34:27;;;;;;;;;;;22.90;99.90;;;;;;5034728;28;19920;-73
2022/03/25 03:36:53;;;;;;;;;;;23.00;99.90;;;;;;5035348;28;19909;-72
2022/03/25 03:39:20;;;;;;;;;;;22.90;99.90;;;;;;5017370;28;20352;-72
2022/03/25 03:41:47;;;;;;;;;;;22.90;99.90;;;;;;5035231;28;19913;-72
2022/03/25 03:44:13;;;;;;;;;;;23.00;99.90;;;;;;5034765;28;19909;-72
2022/03/25 03:46:40;;;;;;;;;;;22.90;99.90;;;;;;5035129;28;19917;-72
2022/03/25 03:49:07;;;;;;;;;;;22.80;99.90;;;;;;5035040;28;19931;-72
2022/03/25 03:51:34;;;;;;;;;;;22.90;99.90;;;;;;5035067;28;19932;-72
2022/03/25 03:54:00;;;;;;;;;;;22.80;99.90;;;;;;5034879;28;19910;-72
2022/03/25 03:56:27;;;;;;;;;;;22.70;99.90;;;;;;5033941;28;19979;-71
2022/03/25 03:58:54;;;;;;;;;;;22.60;99.90;;;;;;5034679;28;19932;-73
2022/03/25 04:01:21;;;;;;;;;;;22.70;99.90;;;;;;5034659;28;19909;-72
2022/03/25 04:03:47;;;;;;;;;;;22.70;99.90;;;;;;5034760;28;19909;-72
2022/03/25 04:06:14;;;;;;;;;;;22.60;99.90;;;;;;5016663;28;20298;-72
2022/03/25 04:08:41;;;;;;;;;;;22.60;99.90;;;;;;5034616;28;19909;-72
2022/03/25 04:11:07;;;;;;;;;;;22.60;99.90;;;;;;5034369;28;19909;-72
2022/03/25 04:13:34;;;;;;;;;;;22.60;99.90;;;;;;5034321;28;19987;-73
2022/03/25 04:16:01;;;;;;;;;;;22.50;99.90;;;;;;5034479;28;19909;-73
2022/03/25 04:18:28;;;;;;;;;;;22.50;99.90;;;;;;5033802;28;20363;-71
2022/03/25 04:20:55;;;;;;;;;;;22.40;99.90;;;;;;5034340;28;20318;-72
2022/03/25 04:23:21;;;;;;;;;;;22.30;99.90;;;;;;5034227;28;19929;-72
2022/03/25 04:25:48;;;;;;;;;;;22.20;99.90;;;;;;5034105;28;19917;-72
2022/03/25 04:28:15;;;;;;;;;;;22.20;99.90;;;;;;5034197;28;19910;-72
2022/03/25 04:30:41;;;;;;;;;;;22.20;99.90;;;;;;5034301;28;19920;-72
2022/03/25 04:33:08;;;;;;;;;;;22.30;99.90;;;;;;5034082;28;20391;-72
2022/03/25 04:35:35;;;;;;;;;;;22.30;99.90;;;;;;5034093;28;20271;-72
2022/03/25 04:38:02;;;;;;;;;;;22.30;99.90;;;;;;5033914;28;19909;-73
2022/03/25 04:40:29;;;;;;;;;;;22.30;99.90;;;;;;5032742;28;20314;-71
2022/03/25 04:42:58;;;;;;;;;;;22.30;99.90;;;;;;5024913;28;19916;-71
2022/03/25 04:45:25;;;;;;;;;;;22.30;99.90;;;;;;5014372;28;19964;-72
2022/03/25 04:47:52;;;;;;;;;;;22.30;99.90;;;;;;5033577;28;19979;-71
2022/03/25 04:50:19;;;;;;;;;;;22.30;99.90;;;;;;5033791;28;20347;-71
2022/03/25 04:52:46;;;;;;;;;;;22.30;99.90;;;;;;5033922;28;19909;-71
2022/03/25 04:55:13;;;;;;;;;;;22.40;99.90;;;;;;5033823;28;19971;-71
2022/03/25 04:57:40;;;;;;;;;;;22.40;99.90;;;;;;5033775;28;19915;-71
2022/03/25 05:00:10;;;;;;;;;;;22.40;99.90;;;;;;5033254;28;19909;-72
2022/03/25 05:02:37;;;;;;;;;;;22.40;99.90;;;;;;5033470;28;20012;-71
2022/03/25 05:05:04;;;;;;;;;;;22.40;99.90;;;;;;5033657;28;19920;-71
2022/03/25 05:07:30;;;;;;;;;;;22.40;99.90;;;;;;5033114;28;19970;-70
2022/03/25 05:10:00;;;;;;;;;;;22.20;99.90;;;;;;5033636;28;19909;-71
2022/03/25 05:12:27;;;;;;;;;;;22.10;99.90;;;;;;5033531;28;19930;-71
2022/03/25 05:14:54;;;;;;;;;;;21.90;99.90;;;;;;5033502;28;19989;-71
2022/03/25 05:17:21;;;;;;;;;;;21.70;99.90;;;;;;5033489;28;20279;-71
2022/03/25 05:19:47;;;;;;;;;;;21.50;99.90;;;;;;5033482;28;19909;-71
2022/03/25 05:22:14;;;;;;;;;;;21.30;99.90;;;;;;5033444;28;20367;-72
2022/03/25 05:24:41;;;;;;;;;;;21.10;99.90;;;;;;5033920;28;19917;-72
2022/03/25 05:27:08;;;;;;;;;;;20.80;99.90;;;;;;5034664;28;19932;-73
2022/03/25 05:29:40;;;;;;;;;;;20.50;99.90;;;;;;5034855;28;20342;-73
2022/03/25 05:32:07;;;;;;;;;;;20.10;99.90;;;;;;5033412;28;19915;-72
2022/03/25 05:34:34;;;;;;;;;;;19.90;99.90;;;;;;5034103;28;19961;-72
2022/03/25 05:37:01;;;;;;;;;;;19.70;99.90;;;;;;5015989;28;20276;-73
2022/03/25 05:39:28;;;;;;;;;;;19.70;99.90;;;;;;5033504;28;19909;-73
2022/03/25 05:41:55;;;;;;;;;;;19.60;99.90;;;;;;5033694;28;19916;-73
2022/03/25 05:44:21;;;;;;;;;;;19.50;99.90;;;;;;5034012;28;20271;-73
2022/03/25 05:46:48;;;;;;;;;;;19.50;99.90;;;;;;5033864;28;19917;-73
2022/03/25 05:49:15;;;;;;;;;;;19.40;99.90;;;;;;5033508;28;19916;-73
2022/03/25 05:51:41;;;;;;;;;;;19.40;99.90;;;;;;5031160;28;19913;-73
2022/03/25 05:54:08;;;;;;;;;;;19.40;99.90;;;;;;5030978;28;19935;-74
2022/03/25 05:56:36;;;;;;;;;;;19.40;99.90;;;;;;5030969;28;20012;-75
2022/03/25 05:59:03;;;;;;;;;;;19.40;99.90;;;;;;5030973;28;20366;-75
2022/03/25 06:01:29;;;;;;;;;;;19.40;99.90;;;;;;5030938;28;20386;-75
2022/03/25 06:03:56;;;;;;;;;;;19.40;99.90;;;;;;5030229;28;19914;-73
2022/03/25 06:06:26;;;;;;;;;;;19.30;99.90;;;;;;5030549;28;19933;-73
2022/03/25 06:08:53;;;;;;;;;;;19.40;99.90;;;;;;5030867;28;19913;-73
2022/03/25 06:11:19;;;;;;;;;;;19.20;99.90;;;;;;5030717;28;19909;-73
2022/03/25 06:13:46;;;;;;;;;;;19.20;99.90;;;;;;5030919;28;19996;-74
2022/03/25 06:16:13;;;;;;;;;;;19.20;99.90;;;;;;5020124;28;19913;-73
2022/03/25 06:18:39;;;;;;;;;;;19.10;99.90;;;;;;5011231;28;20430;-73
2022/03/25 06:21:06;;;;;;;;;;;19.20;99.90;;;;;;5014615;28;19928;-73
2022/03/25 06:23:33;;;;;;;;;;;19.20;99.90;;;;;;5014104;28;19914;-73
2022/03/25 06:26:00;;;;;;;;;;;19.20;99.90;;;;;;5014291;28;20012;-72
2022/03/25 06:28:27;;;;;;;;;;;19.30;99.90;;;;;;5014151;28;20008;-73
2022/03/25 06:30:53;;;;;;;;;;;19.10;99.90;;;;;;5014679;28;20323;-73
2022/03/25 06:33:20;;;;;;;;;;;19.20;99.90;;;;;;5014363;28;19917;-73
2022/03/25 06:35:47;;;;;;;;;;;19.20;99.90;;;;;;5014585;28;19917;-73
2022/03/25 06:38:14;;;;;;;;;;;19.10;99.90;;;;;;5014123;28;19914;-72
2022/03/25 06:40:41;;;;;;;;;;;19.10;99.90;;;;;;5014423;28;20587;-72
2022/03/25 06:43:07;;;;;;;;;;;19.00;99.90;;;;;;5013971;28;19909;-73
2022/03/25 06:45:34;;;;;;;;;;;19.10;99.90;;;;;;5014215;28;19965;-72
2022/03/25 06:48:01;;;;;;;;;;;19.10;99.90;;;;;;5014166;28;19910;-73
2022/03/25 06:50:28;;;;;;;;;;;19.10;99.90;;;;;;5013947;28;19910;-72
2022/03/25 06:52:55;;;;;;;;;;;19.10;99.90;;;;;;5013901;28;19979;-73
2022/03/25 06:55:21;;;;;;;;;;;19.10;99.90;;;;;;5013739;28;19913;-72
2022/03/25 06:57:51;;;;;;;;;;;19.20;99.90;;;;;;5013847;28;20432;-73
2022/03/25 07:00:19;;;;;;;;;;;19.20;99.90;;;;;;5013702;28;19920;-73
2022/03/25 07:02:46;;;;;;;;;;;19.30;99.90;;;;;;5013612;28;19932;-72
2022/03/25 07:05:13;;;;;;;;;;;19.30;99.90;;;;;;5013625;28;19921;-73
2022/03/25 07:07:41;;;;;;;;;;;19.30;99.90;;;;;;5013598;28;19909;-73
2022/03/25 07:10:12;;;;;;;;;;;19.30;99.90;;;;;;5013675;28;19967;-73
2022/03/25 07:12:39;;;;;;;;;;;19.40;99.90;;;;;;5013943;28;19964;-73
2022/03/25 07:15:07;;;;;;;;;;;19.50;99.90;;;;;;5013768;28;20323;-73
2022/03/25 07:17:34;;;;;;;;;;;19.50;99.90;;;;;;5013537;28;19917;-73
2022/03/25 07:20:01;;;;;;;;;;;19.50;99.90;;;;;;5013239;28;19920;-74
2022/03/25 07:22:28;;;;;;;;;;;19.50;99.90;;;;;;5013153;28;19925;-73
2022/03/25 07:24:54;;;;;;;;;;;19.50;99.90;;;;;;5013670;28;20312;-72
2022/03/25 07:27:21;;;;;;;;;;;19.60;99.90;;;;;;5013364;28;19913;-73
2022/03/25 07:29:48;;;;;;;;;;;19.60;99.90;;;;;;5012087;28;20058;-73
2022/03/25 07:32:14;;;;;;;;;;;19.60;99.90;;;;;;5012386;28;20351;-73
2022/03/25 07:34:41;;;;;;;;;;;19.60;99.90;;;;;;5013020;28;19993;-73
2022/03/25 07:37:08;;;;;;;;;;;19.70;99.90;;;;;;5013461;28;19910;-73
2022/03/25 07:39:34;;;;;;;;;;;19.60;99.90;;;;;;5013226;28;19961;-74
2022/03/25 07:42:01;;;;;;;;;;;19.60;99.90;;;;;;5013280;28;19917;-74
2022/03/25 07:44:28;;;;;;;;;;;19.50;99.90;;;;;;5012632;28;20020;-74
2022/03/25 07:46:54;;;;;;;;;;;19.60;99.90;;;;;;5012549;28;19913;-74
2022/03/25 07:49:21;;;;;;;;;;;19.60;99.90;;;;;;5012968;28;20517;-74
2022/03/25 07:51:48;;;;;;;;;;;19.50;99.90;;;;;;5013077;28;19909;-74
2022/03/25 07:54:14;;;;;;;;;;;19.50;99.90;;;;;;5012660;28;19910;-74
2022/03/25 07:56:41;;;;;;;;;;;19.40;99.90;;;;;;5012796;28;20276;-74
2022/03/25 07:59:08;;;;;;;;;;;19.30;99.90;;;;;;5012895;28;19913;-73
2022/03/25 08:01:35;;;;;;;;;;;19.30;99.90;;;;;;5012133;28;19910;-73
2022/03/25 08:04:02;;;;;;;;;;;19.40;99.90;;;;;;5012755;28;19996;-73
2022/03/25 08:06:28;;;;;;;;;;;19.40;99.90;;;;;;5014171;28;20008;-74
2022/03/25 08:08:55;;;;;;;;;;;19.30;99.90;;;;;;5014900;28;19917;-74
2022/03/25 08:11:22;;;;;;;;;;;19.40;99.90;;;;;;5014896;28;19916;-74
2022/03/25 08:16:51;;;;;;;;;;;19.40;99.90;;;;;;5014629;28;19916;-74
2022/03/25 08:19:18;;;;;;;;;;;19.50;99.90;;;;;;5014675;28;19910;-74
2022/03/25 08:21:50;;;;;;;;;;;19.50;99.90;;;;;;5014410;28;19921;-74
2022/03/25 08:29:46;;;;;;;;;;;19.50;99.90;;;;;;5014593;28;19936;-75
2022/03/25 08:32:13;;;;;;;;;;;19.60;99.90;;;;;;5014111;28;19913;-74
2022/03/25 08:34:40;;;;;;;;;;;19.80;99.90;;;;;;5014221;28;20323;-74
2022/03/25 08:37:07;;;;;;;;;;;19.90;99.90;;;;;;5014422;28;19917;-75
2022/03/25 08:39:34;;;;;;;;;;;20.10;99.90;;;;;;5014239;28;20384;-75
2022/03/25 08:42:02;;;;;;;;;;;20.10;99.90;;;;;;5014228;28;20351;-75
2022/03/25 08:44:29;;;;;;;;;;;20.10;99.90;;;;;;5013960;28;19913;-75
2022/03/25 08:46:55;;;;;;;;;;;20.20;99.90;;;;;;5013892;28;20356;-75
2022/03/25 08:49:22;;;;;;;;;;;20.20;99.90;;;;;;5014238;28;20364;-75
2022/03/25 08:51:49;;;;;;;;;;;20.20;99.90;;;;;;5014152;28;20368;-75
2022/03/25 08:54:18;;;;;;;;;;;20.20;99.90;;;;;;5013939;28;19910;-75
2022/03/25 08:56:44;;;;;;;;;;;20.30;99.90;;;;;;5013938;28;19910;-75
2022/03/25 08:59:11;;;;;;;;;;;20.30;99.90;;;;;;5013776;28;19909;-75
2022/03/25 09:01:38;;;;;;;;;;;20.30;99.90;;;;;;5013835;28;19932;-75
2022/03/25 09:04:05;;;;;;;;;;;20.40;99.90;;;;;;5013751;28;19910;-74
2022/03/25 09:06:32;;;;;;;;;;;20.30;99.90;;;;;;5013614;28;19976;-74
2022/03/25 09:08:58;;;;;;;;;;;20.40;99.90;;;;;;5013829;28;20348;-74
2022/03/25 09:11:25;;;;;;;;;;;20.30;99.90;;;;;;5013837;28;19916;-74
2022/03/25 09:13:51;;;;;;;;;;;20.30;99.90;;;;;;5013856;28;19909;-74
2022/03/25 09:16:19;;;;;;;;;;;20.40;99.90;;;;;;5013705;28;19909;-75
2022/03/25 09:18:46;;;;;;;;;;;20.40;99.90;;;;;;5013806;28;19952;-75
2022/03/25 09:21:12;;;;;;;;;;;20.40;99.90;;;;;;5013613;28;19972;-75
2022/03/25 09:23:39;;;;;;;;;;;20.40;99.90;;;;;;5013696;28;19964;-75
2022/03/25 09:26:06;;;;;;;;;;;20.40;99.90;;;;;;5013488;28;19918;-75
2022/03/25 09:28:33;;;;;;;;;;;20.40;99.90;;;;;;4995831;28;20332;-74
2022/03/25 09:30:59;;;;;;;;;;;20.50;99.90;;;;;;5013515;28;19916;-75
2022/03/25 09:33:26;;;;;;;;;;;20.50;99.90;;;;;;5013527;28;20350;-75
2022/03/25 09:35:53;;;;;;;;;;;20.50;99.90;;;;;;5013441;28;19917;-75
2022/03/25 09:38:20;;;;;;;;;;;20.50;99.90;;;;;;5013169;28;19916;-74
2022/03/25 09:40:47;;;;;;;;;;;20.60;99.90;;;;;;5013231;28;20322;-74
2022/03/25 09:43:14;;;;;;;;;;;20.60;99.90;;;;;;5012905;28;19967;-73
2022/03/25 09:45:40;;;;;;;;;;;20.60;99.90;;;;;;5013150;28;19928;-74
2022/03/25 09:48:07;;;;;;;;;;;20.60;99.90;;;;;;5013103;28;19917;-74
2022/03/25 09:50:37;;;;;;;;;;;20.60;99.90;;;;;;5013341;28;19971;-73
2022/03/25 09:53:03;;;;;;;;;;;20.60;99.90;;;;;;4995623;28;20000;-74
2022/03/25 09:55:31;;;;;;;;;;;20.50;99.90;;;;;;5016820;28;19909;-72
2022/03/25 09:57:58;;;;;;;;;;;20.60;99.90;;;;;;5016857;28;19917;-72
2022/03/25 10:00:27;;;;;;;;;;;20.50;99.90;;;;;;5016928;28;19916;-75
2022/03/25 10:02:54;;;;;;;;;;;20.50;99.90;;;;;;5017285;28;19916;-74
2022/03/25 10:05:21;;;;;;;;;;;20.50;99.90;;;;;;5017074;28;19917;-75
2022/03/25 10:07:49;;;;;;;;;;;20.60;99.90;;;;;;5017240;28;19910;-74
2022/03/25 10:10:17;;;;;;;;;;;20.60;99.90;;;;;;5017041;28;19913;-74
2022/03/25 10:12:45;;;;;;;;;;;20.60;99.90;;;;;;5017176;28;19941;-74
2022/03/25 10:15:18;;;;;;;;;;;20.60;99.90;;;;;;5017007;28;19914;-74
2022/03/25 10:17:46;;;;;;;;;;;20.60;99.90;;;;;;5016931;28;19998;-75
2022/03/25 10:20:13;;;;;;;;;;;20.60;99.90;;;;;;5015329;28;19963;-74
2022/03/25 10:22:56;;;;;;;;;;;20.70;99.90;;;;;;5016996;28;19952;-75
2022/03/25 10:25:40;;;;;;;;;;;20.70;99.90;;;;;;5016932;28;19917;-74
2022/03/25 10:28:26;;;;;;;;;;;20.70;99.90;;;;;;5016913;28;19916;-75
2022/03/25 10:30:56;;;;;;;;;;;20.70;99.90;;;;;;5016801;28;19913;-75
2022/03/25 10:33:34;;;;;;;;;;;20.70;99.90;;;;;;5016734;28;19920;-75
2022/03/25 10:36:02;;;;;;;;;;;20.60;99.90;;;;;;5016739;28;19917;-75
2022/03/25 10:38:43;;;;;;;;;;;20.60;99.90;;;;;;5016544;28;19914;-75
2022/03/25 10:41:11;;;;;;;;;;;20.60;99.90;;;;;;5016735;28;19917;-75
2022/03/25 10:44:08;;;;;;;;;;;20.60;99.90;;;;;;5015961;28;20402;-75
2022/03/25 10:46:34;;;;;;;;;;;20.60;99.90;;;;;;5016456;28;19921;-75
2022/03/25 10:49:03;;;;;;;;;;;20.60;99.90;;;;;;5016536;28;20016;-76
2022/03/25 10:51:29;;;;;;;;;;;20.60;99.90;;;;;;5016416;28;19916;-76
2022/03/25 10:53:57;;;;;;;;;;;20.50;99.90;;;;;;5016373;28;19910;-75
2022/03/25 10:56:24;;;;;;;;;;;20.50;99.90;;;;;;5016176;28;19910;-75
2022/03/25 10:58:52;;;;;;;;;;;20.60;99.90;;;;;;5016323;28;19917;-75
2022/03/25 11:01:19;;;;;;;;;;;20.60;99.90;;;;;;5016124;28;19944;-75
2022/03/25 11:03:48;;;;;;;;;;;20.60;99.90;;;;;;5016189;28;20020;-76
2022/03/25 11:06:18;;;;;;;;;;;20.60;99.90;;;;;;5014582;28;20512;-75
2022/03/25 11:08:46;;;;;;;;;;;20.60;99.90;;;;;;5016024;28;19916;-75
2022/03/25 11:11:14;;;;;;;;;;;20.50;99.90;;;;;;5016092;28;20319;-75
2022/03/25 11:13:43;;;;;;;;;;;20.60;99.90;;;;;;5016061;28;19909;-76
2022/03/25 11:16:12;;;;;;;;;;;20.60;99.90;;;;;;5015613;28;19909;-75
2022/03/25 11:18:39;;;;;;;;;;;20.60;99.90;;;;;;5016024;28;20347;-75
2022/03/25 11:21:08;;;;;;;;;;;20.60;99.90;;;;;;5015774;28;19922;-75
2022/03/25 11:23:44;;;;;;;;;;;20.70;99.90;;;;;;5015003;28;21756;-75
2022/03/25 11:26:11;;;;;;;;;;;20.70;99.90;;;;;;5015656;28;19924;-75
2022/03/25 11:28:38;;;;;;;;;;;20.60;99.90;;;;;;5015607;28;19910;-75
2022/03/25 11:31:07;;;;;;;;;;;20.70;99.90;;;;;;5015669;28;20352;-75
2022/03/25 11:33:54;;;;;;;;;;;20.70;99.90;;;;;;5015575;28;19914;-75
2022/03/25 11:36:24;;;;;;;;;;;20.70;99.90;;;;;;5001567;28;19916;-75
2022/03/25 11:39:10;;;;;;;;;;;20.70;99.90;;;;;;5015546;28;19956;-75
2022/03/25 11:41:36;;;;;;;;;;;20.70;99.90;;;;;;5015429;28;19910;-75
2022/03/25 11:44:29;;;;;;;;;;;20.60;99.90;;;;;;5015458;28;19932;-75
2022/03/25 11:46:59;;;;;;;;;;;20.60;99.90;;;;;;5011741;28;19971;-76
2022/03/25 11:49:26;;;;;;;;;;;20.70;99.90;;;;;;5015148;28;20308;-75
2022/03/25 11:51:53;;;;;;;;;;;20.50;99.90;;;;;;5015218;28;19913;-75
2022/03/25 11:54:36;;;;;;;;;;;20.20;99.90;;;;;;5014926;28;19964;-74
2022/03/25 11:57:06;;;;;;;;;;;19.80;99.90;;;;;;5015062;28;19964;-74
2022/03/25 11:59:49;;;;;;;;;;;19.40;99.90;;;;;;5014935;28;20360;-74
2022/03/25 12:02:43;;;;;;;;;;;19.20;99.90;;;;;;5014806;28;20343;-73
2022/03/25 12:05:25;;;;;;;;;;;19.10;99.90;;;;;;4995223;28;19925;-75
2022/03/25 12:08:09;;;;;;;;;;;19.00;99.90;;;;;;5014976;28;19913;-74
2022/03/25 12:10:46;;;;;;;;;;;19.00;99.90;;;;;;5014905;28;19910;-75
2022/03/25 12:13:13;;;;;;;;;;;19.00;99.90;;;;;;5015025;28;20006;-75
2022/03/25 12:15:40;;;;;;;;;;;19.00;99.90;;;;;;5014492;28;19910;-74
2022/03/25 12:18:25;;;;;;;;;;;18.80;99.90;;;;;;5014228;28;19909;-73
2022/03/25 12:20:52;;;;;;;;;;;18.70;99.90;;;;;;5014447;28;19922;-73
2022/03/25 12:23:18;;;;;;;;;;;18.80;99.90;;;;;;5014627;28;19917;-74
2022/03/25 12:25:45;;;;;;;;;;;18.80;99.90;;;;;;5014491;28;20323;-74
2022/03/25 12:28:12;;;;;;;;;;;18.80;99.90;;;;;;5014204;28;19909;-75
2022/03/25 12:30:38;;;;;;;;;;;18.90;99.90;;;;;;5014458;28;19909;-74
2022/03/25 12:33:08;;;;;;;;;;;18.90;99.90;;;;;;5014452;28;19916;-75
2022/03/25 12:35:37;;;;;;;;;;;18.90;99.90;;;;;;5014339;28;19916;-75
2022/03/25 12:38:21;;;;;;;;;;;18.80;99.90;;;;;;5014215;28;19991;-75
2022/03/25 12:40:48;;;;;;;;;;;18.80;99.90;;;;;;5014123;28;20419;-75
2022/03/25 12:43:15;;;;;;;;;;;18.80;99.90;;;;;;5014260;28;20256;-76
2022/03/25 12:45:44;;;;;;;;;;;18.90;99.90;;;;;;5014035;28;20436;-76
2022/03/25 12:48:14;;;;;;;;;;;18.90;99.90;;;;;;5014079;28;19977;-73
2022/03/25 12:50:45;;;;;;;;;;;18.70;99.90;;;;;;5014148;28;20438;-73
2022/03/25 12:53:12;;;;;;;;;;;18.50;99.90;;;;;;5013596;28;19953;-73
2022/03/25 12:55:38;;;;;;;;;;;18.40;99.90;;;;;;5014377;28;20379;-73
2022/03/25 12:58:12;;;;;;;;;;;18.40;99.90;;;;;;4996327;28;19952;-73
2022/03/25 13:00:38;;;;;;;;;;;18.50;99.90;;;;;;5013763;28;19909;-73
2022/03/25 13:03:06;;;;;;;;;;;18.50;99.90;;;;;;5014090;28;19964;-73
2022/03/25 13:05:34;;;;;;;;;;;18.70;99.90;;;;;;5013875;28;19924;-73
2022/03/25 13:08:01;;;;;;;;;;;18.80;99.90;;;;;;5013752;28;20530;-74
2022/03/25 13:10:28;;;;;;;;;;;18.80;99.90;;;;;;5013295;28;19961;-74
2022/03/25 13:12:56;;;;;;;;;;;18.80;99.90;;;;;;5013803;28;19917;-73
2022/03/25 13:15:28;;;;;;;;;;;18.80;99.90;;;;;;5013746;28;19914;-74
2022/03/25 13:17:56;;;;;;;;;;;18.80;99.90;;;;;;5013753;28;19910;-74
2022/03/25 13:20:33;;;;;;;;;;;18.80;99.90;;;;;;5013244;28;19967;-74
2022/03/25 13:23:00;;;;;;;;;;;18.90;99.90;;;;;;5013621;28;20012;-74
2022/03/25 13:25:40;;;;;;;;;;;18.90;99.90;;;;;;5013495;28;19928;-74
2022/03/25 13:28:14;;;;;;;;;;;18.90;99.90;;;;;;5012992;28;19910;-74
2022/03/25 13:30:42;;;;;;;;;;;18.90;99.90;;;;;;5013530;28;20284;-74
2022/03/25 13:33:10;;;;;;;;;;;18.90;99.90;;;;;;5013664;28;19913;-74
2022/03/25 13:35:41;;;;;;;;;;;18.90;99.90;;;;;;5013678;28;19910;-74
2022/03/25 13:38:09;;;;;;;;;;;18.90;99.90;;;;;;5013446;28;19909;-74
2022/03/25 13:40:40;;;;;;;;;;;18.90;99.90;;;;;;5013606;28;19909;-74
2022/03/25 13:43:08;;;;;;;;;;;18.90;99.90;;;;;;5013568;28;20000;-74
2022/03/25 13:45:35;;;;;;;;;;;18.90;99.90;;;;;;5013320;28;19940;-75
2022/03/25 13:48:02;;;;;;;;;;;18.90;99.90;;;;;;5013411;28;20287;-74
2022/03/25 13:50:29;;;;;;;;;;;18.80;99.90;;;;;;5013239;28;20327;-74
2022/03/25 13:52:56;;;;;;;;;;;18.80;99.90;;;;;;5013443;28;19910;-74
2022/03/25 13:55:35;;;;;;;;;;;18.70;99.90;;;;;;5013444;28;20000;-75
2022/03/25 13:58:02;;;;;;;;;;;18.60;99.90;;;;;;5013337;28;19910;-74
2022/03/25 14:00:36;;;;;;;;;;;18.60;99.90;;;;;;5013196;28;20384;-74
2022/03/25 14:03:03;;;;;;;;;;;18.60;99.90;;;;;;5013447;28;19909;-74
2022/03/25 14:05:34;;;;;;;;;;;18.60;99.90;;;;;;5013351;28;20364;-75
2022/03/25 14:08:10;;;;;;;;;;;18.70;99.90;;;;;;5013353;28;19909;-74
2022/03/25 14:10:49;;;;;;;;;;;18.70;99.90;;;;;;5013389;28;20279;-75
2022/03/25 14:13:16;;;;;;;;;;;18.70;99.90;;;;;;5013335;28;20364;-75
2022/03/25 14:15:42;;;;;;;;;;;18.70;99.90;;;;;;5013209;28;19910;-75
2022/03/25 14:18:16;;;;;;;;;;;18.70;99.90;;;;;;5013053;28;19936;-75
2022/03/25 14:20:43;;;;;;;;;;;18.70;99.90;;;;;;5013069;28;19928;-75
2022/03/25 14:23:11;;;;;;;;;;;18.60;99.90;;;;;;5013215;28;19913;-75
2022/03/25 14:25:38;;;;;;;;;;;18.60;99.90;;;;;;5012979;28;19964;-75
2022/03/25 14:28:10;;;;;;;;;;;18.60;99.90;;;;;;5013207;28;19917;-75
2022/03/25 14:30:37;;;;;;;;;;;18.60;99.90;;;;;;5012876;28;19960;-75